createdAt,value
2023-02-07T00:01:41.233Z,0.20
2023-02-07T00:04:09.839Z,0.20
2023-02-07T00:06:38.682Z,0.20
2023-02-07T00:09:10.256Z,0.10
2023-02-07T00:11:41.645Z,0.00
2023-02-07T00:14:12.893Z,0.00
2023-02-07T00:16:42.261Z,0.00
2023-02-07T00:19:10.868Z,0.00
2023-02-07T00:21:39.337Z,0.00
2023-02-07T00:24:08.177Z,-0.20
2023-02-07T00:26:36.641Z,-0.20
2023-02-07T00:29:06.925Z,-0.20
2023-02-07T00:31:36.692Z,-0.20
2023-02-07T00:34:07.592Z,-0.40
2023-02-07T00:36:37.485Z,-0.40
2023-02-07T00:39:08.456Z,-0.30
2023-02-07T00:41:36.612Z,-0.30
2023-02-07T00:44:07.304Z,-0.30
2023-02-07T00:46:36.642Z,-0.50
2023-02-07T00:49:06.145Z,-0.50
2023-02-07T00:51:35.467Z,-0.50
2023-02-07T00:54:04.329Z,-0.50
2023-02-07T00:56:33.295Z,-0.60
2023-02-07T00:59:01.908Z,-0.70
2023-02-07T01:01:32.010Z,-0.80
2023-02-07T01:04:00.520Z,-0.80
2023-02-07T01:06:29.709Z,-0.80
2023-02-07T01:08:59.749Z,-0.90
2023-02-07T01:11:29.065Z,-1.00
2023-02-07T01:13:58.989Z,-1.00
2023-02-07T01:16:29.767Z,-1.00
2023-02-07T01:19:01.411Z,-1.00
2023-02-07T01:21:30.050Z,-0.90
2023-02-07T01:23:59.149Z,-0.90
2023-02-07T01:26:28.343Z,-0.80
2023-02-07T01:28:57.772Z,-0.70
2023-02-07T01:31:26.621Z,-0.60
2023-02-07T01:33:56.509Z,-0.50
2023-02-07T01:36:27.443Z,-0.50
2023-02-07T01:38:56.554Z,-0.40
2023-02-07T01:41:27.072Z,-0.30
2023-02-07T01:44:02.790Z,-0.20
2023-02-07T01:46:33.809Z,-0.10
2023-02-07T01:49:04.763Z,0.00
2023-02-07T01:51:36.013Z,0.00
2023-02-07T01:54:09.699Z,0.00
2023-02-07T01:56:42.009Z,0.00
2023-02-07T01:59:10.468Z,0.10
2023-02-07T02:01:38.939Z,0.10
2023-02-07T02:04:07.326Z,0.00
2023-02-07T02:06:37.475Z,0.10
2023-02-07T02:09:12.288Z,0.10
2023-02-07T02:12:13.149Z,0.10
2023-02-07T02:15:16.164Z,0.00
2023-02-07T02:17:58.292Z,0.00
2023-02-07T02:21:32.499Z,-0.10
2023-02-07T02:25:14.533Z,-0.10
2023-02-07T02:28:08.323Z,-0.10
2023-02-07T02:30:59.423Z,-0.20
2023-02-07T02:33:38.224Z,-0.40
2023-02-07T02:36:20.545Z,-0.50
2023-02-07T02:39:00.148Z,-0.40
2023-02-07T02:41:33.235Z,-0.60
2023-02-07T02:44:09.240Z,-0.70
2023-02-07T02:46:40.269Z,-0.90
2023-02-07T02:49:11.789Z,-1.00
2023-02-07T02:51:40.167Z,-1.10
2023-02-07T02:54:29.300Z,-1.20
2023-02-07T02:57:36.554Z,-1.20
2023-02-07T03:00:38.231Z,-1.10
2023-02-07T03:03:30.189Z,-1.20
2023-02-07T03:06:14.166Z,-1.20
2023-02-07T03:08:54.139Z,-1.20
2023-02-07T03:11:24.963Z,-1.10
2023-02-07T03:14:03.907Z,-1.10
2023-02-07T03:16:37.660Z,-1.10
2023-02-07T03:19:12.018Z,-1.10
2023-02-07T03:21:46.401Z,-1.10
2023-02-07T03:24:18.319Z,-1.10
2023-02-07T03:26:47.932Z,-1.10
2023-02-07T03:29:19.282Z,-1.10
2023-02-07T03:31:51.948Z,-1.20
2023-02-07T03:34:25.761Z,-1.20
2023-02-07T03:37:01.857Z,-1.10
2023-02-07T03:39:30.871Z,-1.00
2023-02-07T03:42:02.930Z,-1.00
2023-02-07T03:44:34.688Z,-1.00
2023-02-07T03:47:03.255Z,-1.00
2023-02-07T03:49:31.664Z,-1.00
2023-02-07T03:52:01.555Z,-1.00
2023-02-07T03:54:29.861Z,-1.00
2023-02-07T03:56:58.219Z,-1.00
2023-02-07T03:59:26.665Z,-1.10
2023-02-07T04:01:55.329Z,-1.00
2023-02-07T04:04:23.755Z,-1.20
2023-02-07T04:06:52.077Z,-1.30
2023-02-07T04:09:22.241Z,-1.40
2023-02-07T04:11:51.407Z,-1.40
2023-02-07T04:14:21.525Z,-1.40
2023-02-07T04:16:50.849Z,-1.40
2023-02-07T04:19:19.435Z,-1.50
2023-02-07T04:21:47.965Z,-1.50
2023-02-07T04:24:18.570Z,-1.60
2023-02-07T04:26:48.314Z,-1.70
2023-02-07T04:29:16.927Z,-1.60
2023-02-07T04:31:45.309Z,-1.70
2023-02-07T04:34:14.082Z,-1.70
2023-02-07T04:36:42.410Z,-1.70
2023-02-07T04:39:10.730Z,-1.70
2023-02-07T04:41:39.057Z,-1.60
2023-02-07T04:44:08.876Z,-1.70
2023-02-07T04:46:37.284Z,-1.70
2023-02-07T04:49:05.613Z,-1.80
2023-02-07T04:51:36.911Z,-1.80
2023-02-07T04:54:05.486Z,-1.80
2023-02-07T04:56:36.214Z,-1.90
2023-02-07T04:59:04.624Z,-2.00
2023-02-07T05:01:34.461Z,-2.10
2023-02-07T05:04:02.775Z,-2.10
2023-02-07T05:06:32.239Z,-2.20
2023-02-07T05:09:00.583Z,-2.20
2023-02-07T05:11:28.921Z,-2.10
2023-02-07T05:13:57.216Z,-2.10
2023-02-07T05:16:25.517Z,-2.10
2023-02-07T05:18:55.309Z,-2.10
2023-02-07T05:21:23.663Z,-2.20
2023-02-07T05:23:51.994Z,-2.20
2023-02-07T05:26:20.496Z,-2.30
2023-02-07T05:28:49.328Z,-2.30
2023-02-07T05:31:17.749Z,-2.30
2023-02-07T05:33:45.164Z,-2.30
2023-02-07T05:36:14.942Z,-2.30
2023-02-07T05:38:43.291Z,-2.30
2023-02-07T05:41:11.646Z,-2.30
2023-02-07T05:43:43.033Z,-2.30
2023-02-07T05:46:11.462Z,-2.40
2023-02-07T05:48:39.827Z,-2.40
2023-02-07T05:51:08.252Z,-2.40
2023-02-07T05:53:38.113Z,-2.40
2023-02-07T05:56:07.085Z,-2.50
2023-02-07T05:58:35.583Z,-2.50
2023-02-07T06:01:04.041Z,-2.50
2023-02-07T06:03:32.430Z,-2.40
2023-02-07T06:06:00.898Z,-2.40
2023-02-07T06:08:29.136Z,-2.30
2023-02-07T06:10:58.826Z,-2.30
2023-02-07T06:13:27.195Z,-2.20
2023-02-07T06:15:55.660Z,-2.10
2023-02-07T06:18:24.876Z,-2.10
2023-02-07T06:20:53.536Z,-2.10
2023-02-07T06:23:23.386Z,-2.00
2023-02-07T06:25:51.700Z,-2.00
2023-02-07T06:28:21.423Z,-2.00
2023-02-07T06:30:51.747Z,-2.00
2023-02-07T06:33:20.347Z,-2.00
2023-02-07T06:35:48.700Z,-1.90
2023-02-07T06:38:19.322Z,-1.90
2023-02-07T06:40:47.722Z,-1.90
2023-02-07T06:43:16.501Z,-1.90
2023-02-07T06:45:46.465Z,-1.80
2023-02-07T06:48:15.037Z,-1.80
2023-02-07T06:50:43.392Z,-1.80
2023-02-07T06:53:11.770Z,-1.80
2023-02-07T06:55:41.274Z,-1.80
2023-02-07T06:58:09.871Z,-1.80
2023-02-07T07:00:38.507Z,-1.80
2023-02-07T07:03:08.349Z,-1.80
2023-02-07T07:05:37.091Z,-1.80
2023-02-07T07:08:06.213Z,-1.80
2023-02-07T07:10:34.685Z,-1.80
2023-02-07T07:13:03.105Z,-1.80
2023-02-07T07:15:31.537Z,-1.70
2023-02-07T07:17:59.910Z,-1.80
2023-02-07T07:20:30.070Z,-1.70
2023-02-07T07:22:58.417Z,-1.70
2023-02-07T07:25:26.825Z,-1.70
2023-02-07T07:27:55.240Z,-1.70
2023-02-07T07:30:23.810Z,-1.70
2023-02-07T07:32:52.461Z,-1.70
2023-02-07T07:35:21.126Z,-1.70
2023-02-07T07:37:50.977Z,-1.60
2023-02-07T07:40:19.593Z,-1.50
2023-02-07T07:42:48.017Z,-1.50
2023-02-07T07:45:16.358Z,-1.50
2023-02-07T07:47:44.893Z,-1.40
2023-02-07T07:50:13.751Z,-1.40
2023-02-07T07:52:43.041Z,-1.30
2023-02-07T07:55:12.802Z,-1.30
2023-02-07T07:57:41.179Z,-1.20
2023-02-07T08:00:11.612Z,-1.10
2023-02-07T08:02:39.972Z,-1.10
2023-02-07T08:05:08.752Z,-1.00
2023-02-07T08:07:37.202Z,-0.90
2023-02-07T08:10:06.703Z,-0.80
2023-02-07T08:12:36.533Z,-0.80
2023-02-07T08:15:07.772Z,-0.70
2023-02-07T08:17:37.092Z,-0.60
2023-02-07T08:20:06.060Z,-0.40
2023-02-07T08:22:34.638Z,-0.40
2023-02-07T08:25:03.046Z,-0.30
2023-02-07T08:27:31.538Z,-0.20
2023-02-07T08:30:01.285Z,-0.10
2023-02-07T08:32:30.484Z,0.00
2023-02-07T08:34:58.843Z,0.00
2023-02-07T08:37:27.228Z,0.10
2023-02-07T08:39:55.857Z,0.20
2023-02-07T08:42:24.461Z,0.40
2023-02-07T08:44:54.182Z,0.50
2023-02-07T08:47:23.913Z,0.60
2023-02-07T08:49:52.311Z,0.70
2023-02-07T08:52:21.107Z,0.80
2023-02-07T08:54:49.454Z,0.90
2023-02-07T08:57:20.154Z,0.90
2023-02-07T08:59:48.485Z,1.10
2023-02-07T09:02:16.997Z,1.20
2023-02-07T09:04:47.480Z,1.30
2023-02-07T09:07:16.101Z,1.40
2023-02-07T09:09:45.068Z,1.50
2023-02-07T09:12:14.448Z,1.60
2023-02-07T09:14:42.805Z,1.70
2023-02-07T09:17:11.269Z,1.80
2023-02-07T09:19:39.591Z,2.00
2023-02-07T09:22:09.264Z,2.10
2023-02-07T09:24:37.912Z,2.30
2023-02-07T09:27:06.210Z,2.40
2023-02-07T09:29:34.869Z,2.50
2023-02-07T09:32:03.285Z,2.60
2023-02-07T09:34:34.035Z,2.80
2023-02-07T09:37:02.474Z,2.90
2023-02-07T09:39:33.092Z,3.00
2023-02-07T09:42:13.445Z,3.00
2023-02-07T09:44:55.897Z,3.10
2023-02-07T09:47:26.563Z,3.20
2023-02-07T09:49:59.677Z,3.10
2023-02-07T09:52:35.608Z,3.20
2023-02-07T09:55:07.586Z,3.20
2023-02-07T09:57:44.317Z,3.40
2023-02-07T10:00:24.657Z,3.40
2023-02-07T10:02:58.783Z,3.30
2023-02-07T10:05:35.709Z,3.40
2023-02-07T10:08:04.375Z,3.50
2023-02-07T10:10:43.116Z,3.60
2023-02-07T10:13:40.630Z,3.70
2023-02-07T10:16:36.568Z,3.70
2023-02-07T10:19:20.059Z,3.70
2023-02-07T10:22:00.083Z,3.80
2023-02-07T10:25:07.798Z,3.90
2023-02-07T10:27:46.119Z,4.10
2023-02-07T10:30:18.200Z,4.40
2023-02-07T10:32:47.664Z,4.40
2023-02-07T10:35:21.319Z,4.50
2023-02-07T10:37:53.116Z,4.60
2023-02-07T10:40:27.824Z,4.60
2023-02-07T10:43:03.913Z,4.80
2023-02-07T10:45:32.395Z,4.90
2023-02-07T10:48:00.760Z,4.70
2023-02-07T10:50:30.473Z,4.70
2023-02-07T10:53:00.816Z,4.70
2023-02-07T10:55:44.940Z,4.80
2023-02-07T10:58:23.530Z,5.00
2023-02-07T11:00:53.800Z,5.10
2023-02-07T11:03:24.036Z,5.40
2023-02-07T11:05:58.899Z,5.60
2023-02-07T11:08:30.222Z,6.00
2023-02-07T11:11:00.703Z,6.20
2023-02-07T11:13:32.690Z,6.30
2023-02-07T11:16:06.220Z,6.40
2023-02-07T11:18:45.428Z,6.60
2023-02-07T11:21:30.585Z,6.70
2023-02-07T11:24:03.086Z,6.90
2023-02-07T11:26:33.025Z,7.00
2023-02-07T11:29:17.185Z,7.10
2023-02-07T11:31:47.765Z,7.20
2023-02-07T11:34:37.448Z,7.20
2023-02-07T11:37:24.048Z,7.00
2023-02-07T11:39:55.301Z,7.00
2023-02-07T11:42:27.783Z,7.10
2023-02-07T11:44:57.491Z,7.20
2023-02-07T11:47:29.724Z,7.20
2023-02-07T11:50:01.041Z,7.20
2023-02-07T11:52:29.968Z,7.50
2023-02-07T11:55:03.542Z,7.60
2023-02-07T11:57:34.590Z,7.60
2023-02-07T12:00:08.024Z,7.80
2023-02-07T12:02:37.478Z,7.70
2023-02-07T12:05:20.022Z,7.50
2023-02-07T12:07:52.098Z,7.40
2023-02-07T12:10:26.939Z,7.10
2023-02-07T12:12:59.961Z,6.90
2023-02-07T12:15:37.033Z,6.80
2023-02-07T12:18:12.740Z,6.80
2023-02-07T12:20:47.708Z,6.90
2023-02-07T12:26:22.659Z,6.70
2023-02-07T12:29:13.544Z,6.50
2023-02-07T12:31:51.079Z,6.50
2023-02-07T12:34:29.641Z,6.60
2023-02-07T12:37:04.494Z,6.40
2023-02-07T12:39:41.002Z,6.30
2023-02-07T12:42:31.164Z,6.30
2023-02-07T12:45:02.167Z,6.20
2023-02-07T12:47:47.104Z,6.20
2023-02-07T12:50:34.454Z,6.20
2023-02-07T12:53:22.951Z,6.30
2023-02-07T12:56:04.793Z,6.30
2023-02-07T12:58:47.999Z,6.30
2023-02-07T13:01:22.457Z,6.20
2023-02-07T13:04:30.193Z,6.10
2023-02-07T13:07:12.807Z,6.00
2023-02-07T13:09:51.039Z,6.00
2023-02-07T13:12:29.839Z,6.00
2023-02-07T13:15:11.048Z,6.00
2023-02-07T13:17:46.483Z,6.00
2023-02-07T13:20:43.128Z,6.00
2023-02-07T13:23:18.719Z,5.90
2023-02-07T13:25:50.773Z,5.90
2023-02-07T13:28:27.472Z,5.90
2023-02-07T13:30:57.424Z,5.90
2023-02-07T13:33:32.450Z,5.80
2023-02-07T13:36:12.255Z,5.80
2023-02-07T13:39:05.809Z,5.80
2023-02-07T13:41:46.859Z,5.80
2023-02-07T13:44:23.818Z,5.80
2023-02-07T13:47:28.549Z,5.80
2023-02-07T13:50:03.227Z,5.80
2023-02-07T13:52:42.455Z,5.80
2023-02-07T13:55:23.997Z,5.70
2023-02-07T13:58:11.361Z,5.60
2023-02-07T14:01:10.432Z,5.60
2023-02-07T14:03:41.038Z,5.60
2023-02-07T14:06:24.908Z,5.60
2023-02-07T14:09:05.651Z,5.60
2023-02-07T14:11:43.926Z,5.60
2023-02-07T14:14:26.506Z,5.60
2023-02-07T14:16:58.243Z,5.60
2023-02-07T14:19:57.684Z,5.60
2023-02-07T14:22:28.898Z,5.70
2023-02-07T14:25:26.029Z,5.60
2023-02-07T14:28:24.463Z,5.60
2023-02-07T14:31:11.447Z,5.60
2023-02-07T14:33:40.583Z,5.60
2023-02-07T14:36:26.924Z,5.50
2023-02-07T14:39:07.147Z,5.50
2023-02-07T14:41:39.915Z,5.50
2023-02-07T14:44:24.646Z,5.60
2023-02-07T14:46:56.028Z,5.60
2023-02-07T14:49:32.792Z,5.60
2023-02-07T14:52:05.637Z,5.50
2023-02-07T14:54:43.448Z,5.50
2023-02-07T14:57:27.936Z,5.50
2023-02-07T15:00:05.051Z,5.50
2023-02-07T15:02:37.415Z,5.50
2023-02-07T15:05:22.527Z,5.40
2023-02-07T15:07:58.682Z,5.40
2023-02-07T15:10:30.705Z,5.30
2023-02-07T15:13:01.672Z,5.30
2023-02-07T15:15:32.243Z,5.20
2023-02-07T15:18:03.397Z,5.30
2023-02-07T15:20:33.855Z,5.30
2023-02-07T15:23:04.807Z,5.20
2023-02-07T15:25:33.232Z,5.20
2023-02-07T15:28:13.024Z,5.20
2023-02-07T15:31:01.023Z,5.20
2023-02-07T15:33:36.959Z,5.10
2023-02-07T15:36:28.715Z,5.10
2023-02-07T15:38:58.535Z,5.10
2023-02-07T15:41:28.450Z,5.00
2023-02-07T15:44:03.289Z,5.00
2023-02-07T15:46:47.737Z,4.90
2023-02-07T15:49:32.345Z,4.80
2023-02-07T15:52:16.762Z,4.80
2023-02-07T15:54:48.516Z,4.80
2023-02-07T15:57:26.006Z,4.80
2023-02-07T15:59:57.803Z,4.80
2023-02-07T16:02:31.585Z,4.70
2023-02-07T16:05:00.580Z,4.70
2023-02-07T16:07:30.200Z,4.70
2023-02-07T16:10:16.570Z,4.60
2023-02-07T16:12:50.073Z,4.60
2023-02-07T16:15:33.259Z,4.50
2023-02-07T16:18:03.825Z,4.50
2023-02-07T16:20:36.489Z,4.40
2023-02-07T16:23:09.755Z,4.30
2023-02-07T16:25:38.785Z,4.30
2023-02-07T16:28:14.182Z,4.20
2023-02-07T16:30:43.906Z,4.20
2023-02-07T16:33:14.723Z,4.10
2023-02-07T16:35:43.458Z,4.00
2023-02-07T16:38:11.790Z,4.00
2023-02-07T16:40:40.883Z,3.90
2023-02-07T16:43:10.003Z,3.80
2023-02-07T16:45:40.217Z,3.60
2023-02-07T16:48:16.239Z,3.50
2023-02-07T16:50:44.755Z,3.50
2023-02-07T16:53:13.045Z,3.50
2023-02-07T16:55:42.099Z,3.40
2023-02-07T16:58:20.982Z,3.20
2023-02-07T17:00:49.307Z,2.90
2023-02-07T17:03:19.158Z,2.70
2023-02-07T17:05:47.663Z,2.60
2023-02-07T17:08:17.883Z,2.40
2023-02-07T17:10:52.542Z,2.30
2023-02-07T17:13:21.001Z,2.00
2023-02-07T17:15:49.384Z,2.10
2023-02-07T17:18:20.562Z,2.00
2023-02-07T17:20:49.215Z,1.80
2023-02-07T17:23:17.507Z,1.80
2023-02-07T17:25:46.438Z,1.80
2023-02-07T17:28:16.005Z,1.80
2023-02-07T17:30:45.153Z,1.80
2023-02-07T17:33:13.768Z,1.60
2023-02-07T17:35:43.875Z,1.50
2023-02-07T17:38:12.591Z,1.40
2023-02-07T17:40:47.622Z,1.30
2023-02-07T17:43:15.927Z,1.10
2023-02-07T17:45:44.269Z,1.20
2023-02-07T17:48:13.854Z,1.20
2023-02-07T17:50:43.956Z,1.20
2023-02-07T17:53:12.640Z,1.20
2023-02-07T17:55:41.376Z,1.20
2023-02-07T17:58:09.782Z,1.20
2023-02-07T18:00:42.947Z,1.00
2023-02-07T18:03:11.560Z,0.90
2023-02-07T18:05:42.186Z,0.90
2023-02-07T18:08:15.218Z,0.80
2023-02-07T18:10:43.588Z,0.80
2023-02-07T18:13:11.933Z,0.90
2023-02-07T18:15:40.373Z,0.90
2023-02-07T18:18:08.714Z,0.70
2023-02-07T18:20:37.090Z,0.70
2023-02-07T18:23:05.602Z,0.60
2023-02-07T18:25:35.528Z,0.50
2023-02-07T18:28:03.908Z,0.50
2023-02-07T18:30:32.780Z,0.50
2023-02-07T18:33:01.125Z,0.50
2023-02-07T18:35:29.435Z,0.40
2023-02-07T18:37:57.801Z,0.30
2023-02-07T18:40:26.144Z,0.30
2023-02-07T18:42:56.657Z,0.20
2023-02-07T18:45:25.537Z,0.10
2023-02-07T18:47:53.944Z,0.00
2023-02-07T18:50:22.382Z,0.00
2023-02-07T18:52:50.702Z,0.00
2023-02-07T18:55:19.168Z,-0.10
2023-02-07T18:57:47.516Z,0.00
2023-02-07T19:00:17.842Z,-0.10
2023-02-07T19:02:47.885Z,-0.10
2023-02-07T19:05:16.312Z,0.00
2023-02-07T19:07:44.642Z,-0.10
2023-02-07T19:10:12.923Z,-0.20
2023-02-07T19:12:41.351Z,-0.20
2023-02-07T19:15:11.248Z,-0.40
2023-02-07T19:17:40.987Z,-0.40
2023-02-07T19:20:11.979Z,-0.50
2023-02-07T19:22:40.124Z,-0.50
2023-02-07T19:25:08.724Z,-0.50
2023-02-07T19:27:37.278Z,-0.50
2023-02-07T19:30:08.008Z,-0.60
2023-02-07T19:32:36.504Z,-0.70
2023-02-07T19:35:06.903Z,-0.70
2023-02-07T19:37:35.263Z,-0.80
2023-02-07T19:40:03.712Z,-0.90
2023-02-07T19:42:32.104Z,-0.90
2023-02-07T19:45:00.424Z,-1.00
2023-02-07T19:47:29.060Z,-1.00
2023-02-07T19:49:57.365Z,-1.00
2023-02-07T19:52:29.045Z,-1.00
2023-02-07T19:54:57.492Z,-0.90
2023-02-07T19:57:25.850Z,-0.90
2023-02-07T19:59:54.164Z,-0.90
2023-02-07T20:02:22.449Z,-0.90
2023-02-07T20:04:54.571Z,-0.90
2023-02-07T20:07:23.195Z,-0.90
2023-02-07T20:09:52.899Z,-0.90
2023-02-07T20:12:21.491Z,-0.90
2023-02-07T20:14:49.825Z,-0.90
2023-02-07T20:17:18.140Z,-0.80
2023-02-07T20:19:46.469Z,-0.80
2023-02-07T20:22:14.846Z,-0.90
2023-02-07T20:24:43.283Z,-0.90
2023-02-07T20:27:12.981Z,-1.00
2023-02-07T20:29:41.298Z,-1.00
2023-02-07T20:32:12.596Z,-0.90
2023-02-07T20:34:41.235Z,-1.00
2023-02-07T20:37:09.810Z,-1.00
2023-02-07T20:39:38.847Z,-1.10
2023-02-07T20:42:07.432Z,-1.10
2023-02-07T20:44:37.348Z,-1.20
2023-02-07T20:47:06.267Z,-1.20
2023-02-07T20:49:34.691Z,-1.30
2023-02-07T20:52:03.410Z,-1.40
2023-02-07T20:54:32.563Z,-1.40
2023-02-07T20:57:00.884Z,-1.30
2023-02-07T20:59:32.640Z,-1.40
2023-02-07T21:02:02.759Z,-1.40
2023-02-07T21:04:31.273Z,-1.50
2023-02-07T21:07:01.093Z,-1.50
2023-02-07T21:09:29.900Z,-1.60
2023-02-07T21:11:59.260Z,-1.70
2023-02-07T21:14:30.466Z,-1.70
2023-02-07T21:17:04.064Z,-1.80
2023-02-07T21:19:32.578Z,-1.80
2023-02-07T21:22:01.094Z,-1.80
2023-02-07T21:24:29.587Z,-1.80
2023-02-07T21:26:58.572Z,-1.80
2023-02-07T21:29:27.998Z,-1.90
2023-02-07T21:31:56.683Z,-1.90
2023-02-07T21:34:26.427Z,-2.00
2023-02-07T21:36:54.737Z,-2.00
2023-02-07T21:39:24.364Z,-2.00
2023-02-07T21:41:53.011Z,-2.00
2023-02-07T21:44:22.198Z,-2.00
2023-02-07T21:46:51.108Z,-2.10
2023-02-07T21:49:20.765Z,-2.10
2023-02-07T21:51:53.777Z,-2.00
2023-02-07T21:54:22.434Z,-2.10
2023-02-07T21:56:52.202Z,-2.00
2023-02-07T21:59:22.943Z,-2.00
2023-02-07T22:01:52.143Z,-2.00
2023-02-07T22:04:20.626Z,-2.00
2023-02-07T22:06:50.909Z,-2.10
2023-02-07T22:09:22.035Z,-2.10
2023-02-07T22:11:50.837Z,-2.20
2023-02-07T22:14:19.878Z,-2.20
2023-02-07T22:16:52.733Z,-2.20
2023-02-07T22:19:22.428Z,-2.20
2023-02-07T22:21:52.882Z,-2.20
2023-02-07T22:24:22.068Z,-2.30
2023-02-07T22:26:50.386Z,-2.40
2023-02-07T22:29:18.791Z,-2.40
2023-02-07T22:31:47.305Z,-2.30
2023-02-07T22:34:16.077Z,-2.30
2023-02-07T22:36:46.071Z,-2.30
2023-02-07T22:39:18.183Z,-2.20
2023-02-07T22:41:47.441Z,-2.30
2023-02-07T22:44:16.062Z,-2.30
2023-02-07T22:46:44.708Z,-2.20
2023-02-07T22:49:13.101Z,-2.20
2023-02-07T22:51:41.610Z,-2.30
2023-02-07T22:54:20.103Z,-2.30
2023-02-07T22:56:48.424Z,-2.30
2023-02-07T22:59:16.887Z,-2.30
2023-02-07T23:01:46.433Z,-2.20
2023-02-07T23:04:17.693Z,-2.10
2023-02-07T23:06:47.160Z,-2.00
2023-02-07T23:09:15.882Z,-2.00
2023-02-07T23:11:46.055Z,-1.90
2023-02-07T23:14:16.488Z,-1.80
2023-02-07T23:16:45.155Z,-1.80
2023-02-07T23:19:16.828Z,-1.80
2023-02-07T23:21:45.964Z,-1.70
2023-02-07T23:24:14.254Z,-1.70
2023-02-07T23:26:42.842Z,-1.60
2023-02-07T23:29:12.726Z,-1.60
2023-02-07T23:31:41.091Z,-1.50
2023-02-07T23:34:10.382Z,-1.50
2023-02-07T23:36:39.880Z,-1.40
2023-02-07T23:39:08.402Z,-1.30
2023-02-07T23:41:38.392Z,-1.20
2023-02-07T23:44:08.007Z,-1.20
2023-02-07T23:46:38.018Z,-1.00
2023-02-07T23:49:06.846Z,-0.90
2023-02-07T23:51:35.187Z,-0.70
2023-02-07T23:54:03.911Z,-0.60
2023-02-07T23:56:32.381Z,-0.60
2023-02-07T23:59:00.847Z,-0.50
